Time;durP1;ratioP1;P1;durP2;ratioP2;P2;SDS_P1;SDS_P2;PMS_P1;PMS_P2;Temp;Humidity;BMP_temperature;BMP_pressure;BME280_temperature;BME280_humidity;BME280_pressure;Samples;Min_cycle;Max_cycle;Signal;HPM_P1;HPM_P2
2023/06/07 00:00:13;;;;;;;7.28;6.80;;;20.70;56.00;;;;;;5036055;28;20178;-86
2023/06/07 00:02:40;;;;;;;7.40;6.90;;;20.50;56.50;;;;;;5018074;28;20183;-86
2023/06/07 00:05:06;;;;;;;7.90;6.80;;;20.30;57.70;;;;;;5035722;28;20188;-87
2023/06/07 00:07:35;;;;;;;7.13;6.63;;;20.10;58.20;;;;;;5034799;28;20208;-85
2023/06/07 00:10:05;;;;;;;7.05;6.45;;;20.00;58.50;;;;;;5035352;28;20184;-87
2023/06/07 00:12:31;;;;;;;6.65;6.18;;;20.00;58.40;;;;;;5035996;28;20496;-86
2023/06/07 00:14:59;;;;;;;7.63;6.93;;;19.90;58.60;;;;;;5035661;28;20173;-87
2023/06/07 00:17:25;;;;;;;7.45;6.70;;;19.90;59.00;;;;;;5035407;28;20209;-86
2023/06/07 00:19:52;;;;;;;6.95;6.45;;;19.70;59.30;;;;;;5036496;28;20231;-85
2023/06/07 00:22:18;;;;;;;6.85;6.45;;;19.60;60.00;;;;;;5036533;28;20370;-86
2023/06/07 00:24:44;;;;;;;6.88;6.38;;;19.50;61.20;;;;;;5036957;28;20184;-86
2023/06/07 00:27:09;;;;;;;6.75;6.25;;;19.40;60.60;;;;;;5036601;28;20272;-87
2023/06/07 00:29:35;;;;;;;6.70;6.25;;;19.50;60.60;;;;;;5036474;28;20661;-86
2023/06/07 00:32:02;;;;;;;6.68;6.18;;;19.50;60.80;;;;;;5035482;28;20267;-87
2023/06/07 00:34:28;;;;;;;6.97;6.47;;;19.50;61.10;;;;;;5035471;28;20191;-87
2023/06/07 00:36:54;;;;;;;7.35;6.65;;;19.30;62.60;;;;;;5035821;28;20613;-86
2023/06/07 00:39:20;;;;;;;6.50;6.10;;;19.10;63.10;;;;;;5036349;28;20190;-86
2023/06/07 00:41:45;;;;;;;6.70;6.20;;;19.00;63.80;;;;;;5040365;28;20601;-86
2023/06/07 00:44:12;;;;;;;6.28;5.78;;;18.80;64.60;;;;;;5050281;28;20690;-86
2023/06/07 00:46:38;;;;;;;7.15;6.55;;;18.70;65.40;;;;;;5040817;28;20298;-87
2023/06/07 00:49:04;;;;;;;6.85;6.25;;;18.60;65.80;;;;;;5040720;28;20191;-87
2023/06/07 00:51:31;;;;;;;6.57;6.10;;;18.60;66.00;;;;;;5041001;28;20183;-85
2023/06/07 00:54:02;;;;;;;6.90;6.40;;;18.40;66.80;;;;;;5041578;28;20185;-86
2023/06/07 00:56:28;;;;;;;6.70;6.20;;;18.40;67.00;;;;;;5039321;28;20206;-87
2023/06/07 00:58:54;;;;;;;7.95;6.63;;;18.50;67.00;;;;;;5039621;28;20184;-87
2023/06/07 01:01:20;;;;;;;6.38;5.90;;;18.60;66.60;;;;;;5039018;28;20195;-86
2023/06/07 01:03:46;;;;;;;7.30;6.60;;;18.60;66.20;;;;;;5037855;28;20269;-87
2023/06/07 01:06:13;;;;;;;6.85;6.25;;;18.60;66.20;;;;;;5036801;28;20204;-88
2023/06/07 01:08:39;;;;;;;6.63;6.13;;;18.70;66.10;;;;;;5036841;28;20195;-87
2023/06/07 01:11:07;;;;;;;6.97;6.47;;;18.70;66.20;;;;;;5038003;28;20186;-86
2023/06/07 01:13:33;;;;;;;6.83;6.20;;;18.50;66.80;;;;;;5039565;28;20220;-87
2023/06/07 01:15:59;;;;;;;6.57;6.07;;;18.40;67.40;;;;;;5038954;28;20369;-87
2023/06/07 01:18:25;;;;;;;6.40;5.90;;;18.30;67.80;;;;;;5042705;28;20237;-86
2023/06/07 01:20:54;;;;;;;6.40;5.80;;;18.20;68.50;;;;;;5028056;28;20183;-86
2023/06/07 01:23:32;;;;;;;6.32;5.82;;;18.30;67.90;;;;;;5038605;28;20179;-87
2023/06/07 01:26:00;;;;;;;7.10;5.60;;;18.40;67.80;;;;;;5041694;28;20674;-86
2023/06/07 01:28:28;;;;;;;6.05;5.60;;;18.30;68.30;;;;;;5038901;28;20241;-87
2023/06/07 01:30:55;;;;;;;6.33;5.73;;;18.20;68.80;;;;;;5039991;28;20657;-87
2023/06/07 01:33:22;;;;;;;6.23;5.60;;;18.00;69.40;;;;;;5040877;28;20648;-86
2023/06/07 01:35:50;;;;;;;6.27;5.77;;;18.00;69.50;;;;;;5040911;28;20182;-87
2023/06/07 01:38:19;;;;;;;6.20;5.70;;;18.20;69.30;;;;;;5042957;28;20221;-85
2023/06/07 01:40:46;;;;;;;6.07;5.57;;;18.10;69.70;;;;;;5044281;28;20423;-88
2023/06/07 01:43:12;;;;;;;6.33;5.87;;;17.90;70.40;;;;;;5040199;28;20189;-86
2023/06/07 01:45:38;;;;;;;7.10;6.00;;;17.80;70.70;;;;;;5039234;28;20217;-87
2023/06/07 01:48:04;;;;;;;6.47;5.87;;;17.70;71.50;;;;;;5040597;28;20207;-87
2023/06/07 01:50:30;;;;;;;6.23;5.83;;;17.70;71.50;;;;;;5034415;28;20212;-86
2023/06/07 01:52:56;;;;;;;5.77;5.37;;;17.60;71.70;;;;;;5020197;28;20215;-85
2023/06/07 01:55:24;;;;;;;6.37;5.87;;;17.50;72.20;;;;;;5020299;28;20178;-87
2023/06/07 01:57:58;;;;;;;6.43;5.47;;;17.60;72.10;;;;;;5033928;28;20219;-86
2023/06/07 02:00:40;;;;;;;6.03;5.43;;;17.50;72.00;;;;;;5037836;28;20172;-87
2023/06/07 02:03:14;;;;;;;6.33;5.93;;;17.60;71.80;;;;;;5038117;28;20600;-85
2023/06/07 02:05:48;;;;;;;6.30;5.70;;;17.70;71.10;;;;;;5037434;28;20677;-86
2023/06/07 02:08:36;;;;;;;6.40;5.90;;;17.80;71.00;;;;;;5038299;28;20196;-87
2023/06/07 02:11:02;;;;;;;6.10;5.60;;;17.70;71.50;;;;;;5039398;28;20196;-87
2023/06/07 02:13:34;;;;;;;6.27;5.77;;;17.60;71.80;;;;;;5039500;28;20200;-86
2023/06/07 02:16:00;;;;;;;6.37;5.70;;;17.50;72.40;;;;;;5041397;28;20179;-87
2023/06/07 02:18:26;;;;;;;6.07;5.53;;;17.50;72.50;;;;;;5040012;28;20185;-86
2023/06/07 02:20:52;;;;;;;6.37;5.87;;;17.40;72.60;;;;;;5039101;28;20195;-84
2023/06/07 02:23:17;;;;;;;6.17;5.67;;;17.50;72.40;;;;;;5040059;28;20185;-87
2023/06/07 02:25:43;;;;;;;6.43;5.73;;;17.60;71.90;;;;;;5021201;28;20243;-86
2023/06/07 02:28:08;;;;;;;6.10;5.70;;;17.60;71.70;;;;;;5039930;28;20220;-86
2023/06/07 02:30:34;;;;;;;6.33;5.77;;;17.60;71.30;;;;;;5039579;28;20235;-87
2023/06/07 02:33:00;;;;;;;6.30;5.80;;;17.70;71.30;;;;;;5041331;28;20184;-87
2023/06/07 02:35:26;;;;;;;6.07;5.67;;;17.60;71.30;;;;;;5045851;28;20645;-87
2023/06/07 02:37:52;;;;;;;6.03;5.63;;;17.80;70.60;;;;;;5056513;28;20210;-87
2023/06/07 02:40:17;;;;;;;5.82;5.38;;;17.90;70.50;;;;;;5059856;28;20260;-86
2023/06/07 02:42:49;;;;;;;6.00;5.50;;;17.80;70.50;;;;;;5059331;28;20277;-86
2023/06/07 02:45:15;;;;;;;6.10;5.60;;;17.80;70.70;;;;;;5042621;28;20183;-87
2023/06/07 02:47:41;;;;;;;6.30;5.70;;;17.70;71.30;;;;;;5041696;28;20216;-86
2023/06/07 02:50:07;;;;;;;6.80;5.80;;;17.60;71.50;;;;;;5040262;28;20555;-87
2023/06/07 02:52:33;;;;;;;6.63;6.13;;;17.60;71.80;;;;;;5037359;28;20215;-85
2023/06/07 02:55:00;;;;;;;6.00;5.50;;;17.50;72.10;;;;;;5037462;28;20184;-87
2023/06/07 02:57:26;;;;;;;6.37;5.77;;;17.50;72.20;;;;;;5024539;28;20221;-88
2023/06/07 02:59:54;;;;;;;6.33;5.83;;;17.50;72.10;;;;;;5015849;28;20177;-87
2023/06/07 03:02:20;;;;;;;6.10;5.60;;;17.50;72.50;;;;;;5015200;28;20184;-88
2023/06/07 03:04:46;;;;;;;6.10;5.67;;;17.40;73.00;;;;;;5016601;28;20188;-86
2023/06/07 03:07:12;;;;;;;6.40;5.90;;;17.40;73.20;;;;;;5029886;28;20283;-87
2023/06/07 03:09:38;;;;;;;6.40;5.90;;;17.30;73.70;;;;;;5038219;28;20190;-86
2023/06/07 03:12:04;;;;;;;6.40;5.80;;;17.20;73.60;;;;;;5038800;28;20178;-84
2023/06/07 03:14:30;;;;;;;6.60;6.10;;;17.30;73.70;;;;;;5038893;28;20201;-87
2023/06/07 03:16:56;;;;;;;5.87;5.47;;;17.30;73.30;;;;;;5038698;28;20209;-86
2023/06/07 03:19:21;;;;;;;6.80;6.20;;;17.40;73.00;;;;;;5038926;28;20195;-86
2023/06/07 03:21:47;;;;;;;7.03;6.10;;;17.50;72.70;;;;;;5038652;28;20180;-87
2023/06/07 03:24:13;;;;;;;6.13;5.63;;;17.50;72.70;;;;;;5039501;28;20196;-86
2023/06/07 03:26:40;;;;;;;6.90;6.20;;;17.70;71.70;;;;;;5039334;28;20286;-86
2023/06/07 03:29:06;;;;;;;6.20;5.70;;;17.70;71.40;;;;;;5038998;28;20184;-86
2023/06/07 03:31:32;;;;;;;9.55;8.85;;;17.70;71.60;;;;;;5042744;28;20205;-86
2023/06/07 03:33:58;;;;;;;6.53;6.03;;;17.60;72.00;;;;;;5049403;28;20182;-86
2023/06/07 03:36:28;;;;;;;6.10;5.60;;;17.60;72.00;;;;;;5037211;28;20213;-87
2023/06/07 03:38:55;;;;;;;6.57;6.07;;;17.50;72.40;;;;;;5037893;28;20305;-86
2023/06/07 03:41:20;;;;;;;6.17;5.67;;;17.20;73.70;;;;;;5039080;28;20195;-85
2023/06/07 03:43:46;;;;;;;7.03;6.10;;;17.00;75.10;;;;;;5038442;28;20243;-86
2023/06/07 03:46:12;;;;;;;6.80;6.20;;;16.90;75.60;;;;;;5037716;28;20200;-86
2023/06/07 03:48:38;;;;;;;6.27;5.77;;;16.80;76.30;;;;;;5037126;28;20619;-86
2023/06/07 03:51:05;;;;;;;5.97;5.57;;;16.80;76.70;;;;;;5036849;28;20267;-87
2023/06/07 03:53:31;;;;;;;7.80;5.97;;;16.70;76.90;;;;;;5035364;28;20279;-87
2023/06/07 03:55:56;;;;;;;6.57;6.07;;;16.60;77.70;;;;;;5035379;28;20196;-87
2023/06/07 03:58:24;;;;;;;6.87;6.07;;;16.50;78.50;;;;;;5016838;28;20209;-86
2023/06/07 04:00:51;;;;;;;6.33;5.83;;;16.40;78.60;;;;;;5014715;28;20508;-86
2023/06/07 04:03:24;;;;;;;6.10;5.57;;;16.30;79.60;;;;;;4997048;28;20239;-86
2023/06/07 04:05:50;;;;;;;6.97;6.13;;;16.20;80.20;;;;;;5016299;28;20204;-87
2023/06/07 04:08:16;;;;;;;6.30;5.90;;;16.30;80.10;;;;;;5034672;28;20216;-86
2023/06/07 04:10:42;;;;;;;7.97;6.13;;;16.30;80.10;;;;;;5036644;28;20235;-87
2023/06/07 04:13:07;;;;;;;5.77;5.27;;;16.40;79.80;;;;;;5036355;28;20175;-87
2023/06/07 04:15:33;;;;;;;6.50;5.90;;;16.40;79.80;;;;;;5042202;28;20191;-83
2023/06/07 04:17:59;;;;;;;6.73;6.23;;;16.40;80.20;;;;;;5056223;28;20207;-86
2023/06/07 04:20:24;;;;;;;6.33;5.83;;;16.40;79.80;;;;;;5059228;28;20185;-87
2023/06/07 04:22:51;;;;;;;6.80;6.30;;;16.50;79.70;;;;;;5058670;28;20188;-86
2023/06/07 04:25:21;;;;;;;6.63;6.00;;;16.50;79.50;;;;;;5058008;28;20238;-86
2023/06/07 04:27:48;;;;;;;6.60;6.00;;;16.40;79.60;;;;;;5047496;28;20691;-87
2023/06/07 04:30:15;;;;;;;6.80;6.20;;;16.50;79.70;;;;;;5044670;28;20193;-88
2023/06/07 04:32:43;;;;;;;6.80;6.20;;;16.50;79.70;;;;;;5036385;28;20178;-86
2023/06/07 04:35:09;;;;;;;6.80;6.30;;;16.50;79.70;;;;;;5038248;28;20209;-87
2023/06/07 04:37:35;;;;;;;22.27;7.87;;;16.50;79.80;;;;;;5039441;28;20712;-86
2023/06/07 04:40:01;;;;;;;6.47;5.97;;;16.50;79.90;;;;;;5037554;28;20196;-86
2023/06/07 04:42:27;;;;;;;6.47;6.07;;;16.50;80.20;;;;;;5036963;28;20181;-86
2023/06/07 04:44:53;;;;;;;6.80;6.30;;;16.50;80.30;;;;;;5037311;28;20177;-86
2023/06/07 04:47:19;;;;;;;7.07;6.50;;;16.50;80.10;;;;;;5036225;28;20217;-86
2023/06/07 04:49:46;;;;;;;5.97;5.57;;;16.50;80.40;;;;;;5035879;28;20186;-86
2023/06/07 04:52:19;;;;;;;6.60;6.20;;;16.50;80.50;;;;;;5018660;28;20188;-86
2023/06/07 04:54:46;;;;;;;6.80;6.13;;;16.50;80.50;;;;;;5036957;28;20185;-87
2023/06/07 04:57:13;;;;;;;6.43;5.97;;;16.50;80.70;;;;;;5037940;28;20234;-86
2023/06/07 04:59:44;;;;;;;6.00;5.53;;;16.60;80.40;;;;;;5036727;28;20179;-85
2023/06/07 05:02:10;;;;;;;13.40;6.90;;;16.70;80.30;;;;;;5037635;28;20246;-87
2023/06/07 05:04:38;;;;;;;11.90;6.60;;;16.70;79.80;;;;;;5036700;28;20187;-87
2023/06/07 05:07:08;;;;;;;7.70;6.40;;;16.70;79.70;;;;;;5038214;28;20237;-88
2023/06/07 05:09:34;;;;;;;8.03;5.93;;;16.80;79.60;;;;;;5038081;28;20173;-87
2023/06/07 05:12:00;;;;;;;12.90;6.70;;;16.80;79.60;;;;;;5038139;28;20184;-85
2023/06/07 05:14:26;;;;;;;7.20;6.57;;;16.90;79.30;;;;;;5040290;28;20191;-84
2023/06/07 05:16:51;;;;;;;6.17;5.77;;;17.20;78.10;;;;;;5040527;28;20205;-86
2023/06/07 05:19:18;;;;;;;7.27;6.43;;;17.20;77.70;;;;;;5039882;28;20559;-88
2023/06/07 05:21:44;;;;;;;6.80;6.20;;;17.20;78.00;;;;;;5039402;28;20196;-86
2023/06/07 05:24:10;;;;;;;7.33;6.60;;;17.30;77.70;;;;;;5038761;28;20669;-85
2023/06/07 05:26:35;;;;;;;7.93;6.23;;;17.40;77.30;;;;;;5053372;28;20223;-87
2023/06/07 05:29:01;;;;;;;6.97;6.30;;;17.50;76.50;;;;;;5046888;28;20188;-88
2023/06/07 05:31:27;;;;;;;6.07;5.67;;;17.70;76.00;;;;;;5041793;28;20274;-86
2023/06/07 05:33:53;;;;;;;6.45;5.88;;;17.70;75.90;;;;;;5043025;28;20171;-85
2023/06/07 05:36:20;;;;;;;7.30;6.53;;;17.90;75.30;;;;;;5042641;28;20194;-86
2023/06/07 05:38:45;;;;;;;7.55;5.97;;;17.90;75.10;;;;;;5042595;28;20206;-86
2023/06/07 05:41:11;;;;;;;6.65;6.05;;;18.00;74.00;;;;;;5042128;28;20180;-85
2023/06/07 05:43:37;;;;;;;7.35;6.75;;;18.00;74.20;;;;;;5041750;28;20630;-86
2023/06/07 05:46:02;;;;;;;8.75;6.18;;;18.10;73.60;;;;;;5042119;28;20208;-86
2023/06/07 05:48:28;;;;;;;6.55;6.05;;;18.10;73.20;;;;;;5041752;28;20189;-85
2023/06/07 05:50:54;;;;;;;6.70;6.25;;;18.20;72.90;;;;;;5041787;28;20660;-87
2023/06/07 05:53:20;;;;;;;7.05;6.47;;;18.30;72.60;;;;;;5042189;28;20183;-87
2023/06/07 05:55:47;;;;;;;6.78;6.28;;;18.30;72.50;;;;;;5041428;28;20205;-84
2023/06/07 05:58:14;;;;;;;6.75;6.10;;;18.30;72.70;;;;;;5030444;28;20349;-86
2023/06/07 06:00:40;;;;;;;7.13;6.28;;;18.50;72.10;;;;;;5045486;28;20208;-85
2023/06/07 06:03:06;;;;;;;6.95;6.32;;;18.60;72.40;;;;;;5044351;28;20191;-85
2023/06/07 06:05:32;;;;;;;6.90;6.22;;;18.70;71.40;;;;;;5041318;28;20204;-87
2023/06/07 06:07:57;;;;;;;7.07;6.28;;;18.80;71.30;;;;;;5047307;28;20256;-86
2023/06/07 06:10:24;;;;;;;7.03;6.47;;;18.80;70.90;;;;;;5030200;28;20284;-85
2023/06/07 06:12:50;;;;;;;7.57;6.85;;;18.90;70.80;;;;;;5047513;28;20181;-87
2023/06/07 06:15:15;;;;;;;6.68;6.05;;;19.00;70.30;;;;;;5047125;28;20323;-85
2023/06/07 06:17:41;;;;;;;7.30;6.53;;;19.10;70.10;;;;;;5044658;28;20706;-89
2023/06/07 06:20:08;;;;;;;6.85;6.13;;;19.20;70.00;;;;;;5051097;28;20618;-85
2023/06/07 06:22:34;;;;;;;8.00;7.28;;;19.30;70.00;;;;;;5057079;28;20207;-87
2023/06/07 06:24:59;;;;;;;19.58;17.92;;;19.40;69.00;;;;;;5063747;28;20180;-86
2023/06/07 06:27:25;;;;;;;7.10;6.40;;;19.50;68.30;;;;;;5062438;28;20222;-85
2023/06/07 06:29:51;;;;;;;7.50;6.03;;;19.50;68.20;;;;;;5043992;28;20177;-85
2023/06/07 06:32:16;;;;;;;6.80;6.30;;;19.50;68.70;;;;;;5044187;28;20191;-86
2023/06/07 06:34:44;;;;;;;6.38;5.80;;;19.50;68.90;;;;;;5044151;28;20192;-86
2023/06/07 06:37:10;;;;;;;7.32;6.15;;;19.60;69.30;;;;;;5042145;28;20275;-85
2023/06/07 06:39:35;;;;;;;6.50;5.90;;;19.60;68.90;;;;;;5041306;28;20219;-85
2023/06/07 06:42:01;;;;;;;6.57;5.93;;;19.60;69.00;;;;;;5040825;28;20551;-86
2023/06/07 06:44:27;;;;;;;7.57;6.07;;;19.70;69.30;;;;;;5039153;28;20173;-86
2023/06/07 06:46:52;;;;;;;6.57;5.97;;;19.70;67.90;;;;;;5022473;28;20593;-85
2023/06/07 06:49:18;;;;;;;7.97;5.70;;;19.80;68.00;;;;;;5039967;28;20237;-85
2023/06/07 06:51:45;;;;;;;6.38;5.78;;;20.00;67.80;;;;;;5038641;28;20241;-86
2023/06/07 06:54:12;;;;;;;6.40;5.80;;;20.10;67.00;;;;;;5039119;28;20175;-84
2023/06/07 06:56:38;;;;;;;6.47;5.80;;;19.90;67.70;;;;;;5035766;28;20240;-83
2023/06/07 06:59:03;;;;;;;6.32;5.93;;;20.00;67.50;;;;;;5033546;28;20546;-84
2023/06/07 07:01:58;;;;;;;8.73;6.03;;;20.00;67.60;;;;;;5041701;28;20225;-85
2023/06/07 07:04:24;;;;;;;6.22;5.68;;;19.90;67.80;;;;;;5022341;28;20197;-86
2023/06/07 07:06:50;;;;;;;6.10;5.57;;;20.10;67.90;;;;;;5042275;28;20209;-86
2023/06/07 07:09:16;;;;;;;6.60;5.95;;;20.20;66.60;;;;;;5041029;28;20249;-85
2023/06/07 07:11:41;;;;;;;5.53;5.13;;;20.20;66.50;;;;;;5023363;28;20176;-82
2023/06/07 07:14:07;;;;;;;6.13;5.63;;;20.30;66.90;;;;;;5041826;28;20204;-85
2023/06/07 07:16:33;;;;;;;6.10;5.60;;;20.50;65.70;;;;;;5046352;28;20220;-85
2023/06/07 07:18:58;;;;;;;6.43;5.93;;;20.50;66.20;;;;;;5040955;28;20188;-86
2023/06/07 07:21:26;;;;;;;6.28;5.88;;;20.70;65.30;;;;;;5040949;28;20190;-87
2023/06/07 07:23:52;;;;;;;8.30;6.13;;;20.90;64.80;;;;;;5041602;28;20181;-86
2023/06/07 07:26:18;;;;;;;6.90;6.22;;;21.00;64.20;;;;;;5041466;28;20207;-86
2023/06/07 07:28:44;;;;;;;6.32;5.82;;;21.10;63.70;;;;;;5030598;28;20186;-84
2023/06/07 07:31:10;;;;;;;6.53;6.03;;;20.90;64.00;;;;;;5020240;28;20173;-85
2023/06/07 07:33:36;;;;;;;14.23;7.18;;;20.80;63.40;;;;;;5020360;28;20540;-86
2023/06/07 07:36:02;;;;;;;15.85;6.40;;;21.30;63.10;;;;;;5022477;28;20218;-85
2023/06/07 07:38:32;;;;;;;6.28;5.85;;;21.40;61.70;;;;;;5036889;28;20188;-87
2023/06/07 07:40:58;;;;;;;9.00;6.20;;;21.20;62.30;;;;;;5038509;28;20698;-86
2023/06/07 07:43:24;;;;;;;5.80;5.40;;;21.10;63.20;;;;;;5037919;28;20182;-85
2023/06/07 07:45:50;;;;;;;6.45;5.90;;;21.10;63.90;;;;;;5037312;28;20212;-87
2023/06/07 07:48:15;;;;;;;5.57;5.18;;;21.10;63.80;;;;;;5019327;28;20275;-88
2023/06/07 07:50:41;;;;;;;6.28;5.68;;;21.30;62.30;;;;;;5019027;28;20199;-85
2023/06/07 07:53:07;;;;;;;5.75;5.35;;;21.40;62.70;;;;;;5019874;28;20660;-86
2023/06/07 07:55:34;;;;;;;8.88;5.70;;;21.50;62.30;;;;;;5020697;28;20223;-83
2023/06/07 07:58:00;;;;;;;7.45;6.05;;;21.70;61.00;;;;;;5026147;28;20212;-85
2023/06/07 08:00:26;;;;;;;6.63;5.85;;;21.90;60.50;;;;;;5040200;28;20172;-87
2023/06/07 08:02:51;;;;;;;5.82;5.32;;;22.00;59.90;;;;;;5040706;28;20200;-86
2023/06/07 08:05:17;;;;;;;5.85;5.32;;;22.20;59.00;;;;;;5040323;28;20181;-84
2023/06/07 08:07:43;;;;;;;9.63;5.20;;;22.10;58.40;;;;;;5040388;28;20184;-84
2023/06/07 08:10:10;;;;;;;6.10;5.50;;;22.30;58.70;;;;;;5039751;28;20543;-86
2023/06/07 08:12:35;;;;;;;5.68;5.25;;;22.40;57.00;;;;;;5043668;28;20192;-84
2023/06/07 08:15:02;;;;;;;5.80;5.40;;;22.40;57.30;;;;;;5051242;28;20180;-85
2023/06/07 08:17:28;;;;;;;5.90;5.50;;;22.30;58.00;;;;;;5059761;28;20621;-84
2023/06/07 08:19:53;;;;;;;6.40;5.95;;;22.50;58.20;;;;;;5059241;28;20253;-85
2023/06/07 08:22:19;;;;;;;5.57;5.10;;;22.60;58.10;;;;;;5052324;28;20212;-85
2023/06/07 08:24:45;;;;;;;6.05;5.63;;;22.90;57.70;;;;;;5038903;28;20185;-84
2023/06/07 08:27:10;;;;;;;6.03;5.53;;;23.00;55.90;;;;;;5038737;28;20702;-86
2023/06/07 08:29:36;;;;;;;16.42;7.00;;;23.10;55.50;;;;;;5039623;28;20184;-85
2023/06/07 08:32:02;;;;;;;5.90;5.47;;;22.90;56.20;;;;;;5038383;28;20199;-86
2023/06/07 08:34:28;;;;;;;5.82;5.30;;;23.00;55.90;;;;;;5038438;28;20199;-86
2023/06/07 08:36:58;;;;;;;5.80;5.40;;;23.10;56.20;;;;;;5019924;28;20641;-86
2023/06/07 08:39:24;;;;;;;5.75;5.35;;;23.30;54.90;;;;;;5037241;28;20169;-86
2023/06/07 08:41:50;;;;;;;5.90;5.50;;;23.30;54.40;;;;;;5035649;28;20177;-83
2023/06/07 08:44:15;;;;;;;5.80;5.50;;;23.30;55.10;;;;;;5035433;28;20203;-86
2023/06/07 08:46:42;;;;;;;6.38;5.80;;;23.30;54.80;;;;;;5036473;28;20254;-86
2023/06/07 08:49:10;;;;;;;5.80;5.35;;;23.50;55.20;;;;;;5034678;28;20702;-85
2023/06/07 08:51:36;;;;;;;5.75;5.25;;;23.50;54.10;;;;;;5036182;28;20184;-87
2023/06/07 08:54:04;;;;;;;5.10;4.80;;;23.50;53.40;;;;;;5037746;28;20249;-84
2023/06/07 08:56:33;;;;;;;4.93;4.72;;;23.80;51.90;;;;;;5016165;28;20328;-86
2023/06/07 08:59:00;;;;;;;5.32;5.03;;;23.90;52.70;;;;;;5017716;28;20169;-85
2023/06/07 09:01:29;;;;;;;5.70;5.20;;;23.90;51.90;;;;;;5030522;28;20365;-84
2023/06/07 09:03:55;;;;;;;5.30;5.00;;;23.90;52.50;;;;;;5036668;28;20201;-85
2023/06/07 09:06:22;;;;;;;5.03;4.65;;;24.20;50.50;;;;;;5041692;28;20590;-87
2023/06/07 09:08:48;;;;;;;5.30;5.00;;;24.40;49.60;;;;;;5041811;28;20212;-87
2023/06/07 09:11:15;;;;;;;4.97;4.78;;;24.30;49.30;;;;;;5058730;28;20187;-87
2023/06/07 09:13:41;;;;;;;6.03;5.63;;;24.30;50.20;;;;;;5061136;28;20211;-85
2023/06/07 09:16:10;;;;;;;5.05;4.75;;;24.50;50.70;;;;;;5061660;28;20299;-86
2023/06/07 09:18:55;;;;;;;5.20;4.90;;;24.60;49.30;;;;;;5055163;28;20181;-86
2023/06/07 09:21:21;;;;;;;5.03;4.72;;;24.80;48.00;;;;;;5041672;28;20583;-85
2023/06/07 09:23:48;;;;;;;6.13;5.20;;;24.80;49.40;;;;;;5041037;28;20185;-86
2023/06/07 09:26:15;;;;;;;5.45;5.15;;;24.90;48.00;;;;;;5041718;28;20192;-86
2023/06/07 09:28:41;;;;;;;5.40;5.00;;;24.90;48.30;;;;;;5042264;28;20177;-85
2023/06/07 09:31:08;;;;;;;4.95;4.68;;;24.90;47.80;;;;;;5039440;28;20207;-87
2023/06/07 09:33:35;;;;;;;4.88;4.68;;;25.10;47.70;;;;;;5038776;28;20836;-85
2023/06/07 09:36:15;;;;;;;5.18;4.70;;;25.00;47.40;;;;;;5038624;28;20189;-86
2023/06/07 09:38:41;;;;;;;5.20;4.90;;;24.90;48.10;;;;;;5038112;28;20770;-85
2023/06/07 09:41:09;;;;;;;4.95;4.75;;;24.80;48.10;;;;;;5037661;28;20192;-86
2023/06/07 09:43:46;;;;;;;5.25;4.60;;;24.80;47.20;;;;;;5021525;28;20576;-84
2023/06/07 09:46:19;;;;;;;5.38;4.97;;;25.20;45.60;;;;;;5018775;28;20236;-85
2023/06/07 09:48:53;;;;;;;5.05;4.70;;;25.00;47.60;;;;;;5020256;28;20174;-85
2023/06/07 09:51:20;;;;;;;4.93;4.72;;;25.30;46.20;;;;;;5019304;28;20172;-84
2023/06/07 09:53:52;;;;;;;4.93;4.72;;;25.40;46.30;;;;;;5019837;28;20173;-89
2023/06/07 09:56:20;;;;;;;5.25;4.85;;;25.40;46.00;;;;;;5037820;28;20221;-86
2023/06/07 09:58:49;;;;;;;6.35;5.53;;;25.70;44.80;;;;;;5000392;28;20178;-87
2023/06/07 10:01:29;;;;;;;5.47;5.13;;;26.20;44.80;;;;;;5028915;28;20192;-87
2023/06/07 10:03:55;;;;;;;6.30;5.93;;;26.60;41.70;;;;;;5037577;28;20177;-87
2023/06/07 10:06:21;;;;;;;5.50;5.30;;;26.80;41.30;;;;;;5037682;28;20216;-87
2023/06/07 10:08:47;;;;;;;6.22;5.78;;;26.90;40.80;;;;;;5037894;28;20177;-86
2023/06/07 10:11:14;;;;;;;8.00;7.65;;;27.20;40.50;;;;;;5036886;28;20656;-86
2023/06/07 10:13:42;;;;;;;7.68;7.28;;;27.30;39.30;;;;;;5037838;28;20340;-86
2023/06/07 10:16:10;;;;;;;9.18;8.77;;;27.30;39.50;;;;;;5040065;28;20662;-87
2023/06/07 10:18:39;;;;;;;8.80;8.50;;;27.20;39.00;;;;;;5049359;28;20183;-86
2023/06/07 10:21:15;;;;;;;7.20;6.82;;;26.60;39.30;;;;;;5038203;28;20605;-86
2023/06/07 10:23:47;;;;;;;6.80;6.30;;;26.40;41.90;;;;;;5020393;28;20199;-85
2023/06/07 10:26:33;;;;;;;6.40;5.90;;;26.00;43.10;;;;;;5036789;28;20224;-86
2023/06/07 10:29:07;;;;;;;5.72;5.45;;;25.90;42.20;;;;;;5037012;28;20173;-86
2023/06/07 10:31:43;;;;;;;6.55;6.15;;;26.30;42.40;;;;;;5016815;28;20185;-84
2023/06/07 10:34:10;;;;;;;5.72;5.32;;;26.30;40.30;;;;;;5035226;28;20173;-86
2023/06/07 10:36:40;;;;;;;5.47;5.28;;;26.20;42.10;;;;;;5004130;28;20209;-86
2023/06/07 10:39:07;;;;;;;5.63;5.28;;;26.10;42.90;;;;;;5011101;28;20280;-86
2023/06/07 10:41:35;;;;;;;5.45;5.15;;;25.90;43.20;;;;;;5011335;28;20655;-86
2023/06/07 10:44:01;;;;;;;5.80;5.50;;;25.80;43.20;;;;;;5012475;28;20197;-87
2023/06/07 10:46:28;;;;;;;5.20;5.00;;;25.80;42.70;;;;;;5018418;28;20285;-84
2023/06/07 10:48:56;;;;;;;5.85;5.55;;;26.00;42.80;;;;;;5004731;28;20181;-86
2023/06/07 10:51:44;;;;;;;6.57;6.28;;;26.60;41.40;;;;;;5013048;28;20446;-85
2023/06/07 10:54:10;;;;;;;7.43;6.93;;;27.20;38.90;;;;;;5016131;28;20181;-86
2023/06/07 10:56:37;;;;;;;8.75;8.45;;;27.30;39.60;;;;;;5018435;28;20233;-86
2023/06/07 10:59:15;;;;;;;10.43;9.82;;;27.90;37.00;;;;;;5018061;28;20189;-86
2023/06/07 11:01:46;;;;;;;10.43;10.00;;;28.30;36.50;;;;;;4995964;28;20193;-86
2023/06/07 11:04:33;;;;;;;11.48;11.05;;;28.70;35.80;;;;;;5016396;28;20537;-87
2023/06/07 11:07:18;;;;;;;10.32;9.93;;;28.70;35.30;;;;;;5017472;28;20274;-86
2023/06/07 11:09:44;;;;;;;11.93;11.40;;;28.10;37.50;;;;;;5017006;28;20270;-85
2023/06/07 11:12:36;;;;;;;10.98;10.57;;;27.50;37.40;;;;;;4997639;28;20211;-85
2023/06/07 11:15:16;;;;;;;10.38;9.82;;;27.10;38.60;;;;;;5017110;28;20193;-86
2023/06/07 11:18:10;;;;;;;9.90;9.50;;;27.00;39.10;;;;;;5019163;28;20264;-85
2023/06/07 11:20:38;;;;;;;9.65;9.25;;;27.20;38.60;;;;;;5018799;28;20294;-86
2023/06/07 11:23:30;;;;;;;10.30;9.90;;;27.40;37.20;;;;;;5015100;28;20208;-85
2023/06/07 11:26:05;;;;;;;11.20;10.70;;;28.20;36.60;;;;;;5018760;28;20208;-87
2023/06/07 11:28:32;;;;;;;12.05;11.55;;;28.80;35.40;;;;;;5013300;28;20183;-87
2023/06/07 11:30:58;;;;;;;11.82;11.35;;;28.80;34.50;;;;;;5012316;28;20236;-85
2023/06/07 11:33:25;;;;;;;11.60;11.10;;;28.00;35.80;;;;;;5012666;28;20240;-87
2023/06/07 11:35:52;;;;;;;11.32;10.93;;;27.60;36.10;;;;;;5015062;28;20291;-87
2023/06/07 11:38:18;;;;;;;11.68;11.27;;;27.70;36.10;;;;;;5016025;28;20202;-87
2023/06/07 11:40:45;;;;;;;12.32;11.82;;;28.40;36.00;;;;;;5014811;28;20193;-86
2023/06/07 11:43:17;;;;;;;11.95;11.45;;;28.40;35.00;;;;;;4998434;28;20640;-85
2023/06/07 11:45:43;;;;;;;12.45;11.90;;;28.20;35.70;;;;;;5020134;28;20197;-87
2023/06/07 11:48:10;;;;;;;12.13;11.52;;;28.30;35.60;;;;;;5019383;28;20670;-85
2023/06/07 11:50:37;;;;;;;14.07;13.15;;;28.80;35.20;;;;;;5017039;28;20231;-87
2023/06/07 11:53:04;;;;;;;14.00;13.20;;;28.90;35.50;;;;;;5016415;28;20189;-84
2023/06/07 11:55:30;;;;;;;13.30;12.70;;;28.90;35.10;;;;;;5017168;28;20622;-85
2023/06/07 11:57:56;;;;;;;12.77;12.07;;;28.40;36.10;;;;;;5016542;28;20221;-86
2023/06/07 12:00:23;;;;;;;11.93;11.43;;;28.00;37.90;;;;;;5014138;28;20185;-86
2023/06/07 12:02:52;;;;;;;13.05;12.45;;;28.00;38.40;;;;;;5015352;28;20184;-85
2023/06/07 12:05:21;;;;;;;13.45;12.85;;;28.60;36.80;;;;;;5017531;28;20186;-88
2023/06/07 12:08:04;;;;;;;14.75;14.15;;;29.10;36.20;;;;;;5014205;28;20317;-85
2023/06/07 12:10:33;;;;;;;14.93;14.13;;;29.50;34.70;;;;;;5015145;28;20191;-87
2023/06/07 12:13:18;;;;;;;13.90;13.30;;;29.50;34.40;;;;;;5018853;28;20296;-85
2023/06/07 12:15:46;;;;;;;14.30;13.70;;;29.70;34.70;;;;;;5018535;28;20209;-87
2023/06/07 12:18:31;;;;;;;14.68;13.98;;;29.80;33.60;;;;;;5017367;28;20240;-85
2023/06/07 12:21:04;;;;;;;14.63;14.02;;;29.70;33.80;;;;;;5014881;28;20313;-86
2023/06/07 12:23:30;;;;;;;15.43;14.82;;;30.00;33.90;;;;;;5001516;28;20181;-87
2023/06/07 12:26:14;;;;;;;15.32;14.45;;;30.40;33.20;;;;;;5018427;28;20255;-87
2023/06/07 12:28:42;;;;;;;14.95;14.35;;;30.00;32.70;;;;;;5015643;28;20184;-86
2023/06/07 12:31:24;;;;;;;14.95;14.35;;;29.80;33.00;;;;;;5012455;28;20189;-85
2023/06/07 12:33:53;;;;;;;16.15;15.45;;;29.70;32.20;;;;;;5014203;28;20191;-88
2023/06/07 12:36:19;;;;;;;15.05;14.45;;;29.10;33.20;;;;;;5015706;28;20299;-84
2023/06/07 12:38:44;;;;;;;14.73;14.02;;;29.10;33.40;;;;;;5015707;28;20252;-87
2023/06/07 12:41:10;;;;;;;15.77;15.18;;;29.90;32.10;;;;;;5017245;28;20634;-87
2023/06/07 12:43:36;;;;;;;18.52;17.75;;;30.20;31.90;;;;;;5021081;28;20281;-87
2023/06/07 12:46:01;;;;;;;18.27;17.58;;;30.90;30.30;;;;;;5022399;28;20264;-88